Arties, Catalunya

latitud = 42° 42' 01''N | longitud = 00° 52' 37''E
1161 metros sobre el nivel del mar | datos mensuales

Fecha, hora, temperatura, viento dirección y velocidad, humedad y presión.

  • 22-11-2017 09:00:00 | 5.20°C | Este |5.00 km/h | 50.00% | 0.00 hPa
  • 22-11-2017 08:00:00 | 3.10°C | Este |2.00 km/h | 57.00% | 0.00 hPa
  • 22-11-2017 07:00:00 | 4.20°C | Nordeste |2.00 km/h | 53.00% | 0.00 hPa
  • 22-11-2017 06:00:00 | 5.90°C | Este |6.00 km/h | 46.00% | 0.00 hPa
  • 22-11-2017 05:00:00 | 7.30°C | Este |10.00 km/h | 42.00% | 0.00 hPa
  • 22-11-2017 04:00:00 | 7.90°C | Este |10.00 km/h | 41.00% | 0.00 hPa
  • 22-11-2017 03:00:00 | 7.90°C | Este |9.00 km/h | 41.00% | 0.00 hPa
  • 22-11-2017 02:00:00 | 8.60°C | Sudeste |9.00 km/h | 38.00% | 0.00 hPa
  • 22-11-2017 01:00:00 | 8.70°C | Este |10.00 km/h | 38.00% | 0.00 hPa
  • 22-11-2017 00:00:00 | 8.20°C | Este |9.00 km/h | 39.00% | 0.00 hPa
  • 21-11-2017 23:00:00 | 3.80°C | Calma |0.00 km/h | 52.00% | 0.00 hPa
  • 21-11-2017 22:00:00 | 5.00°C | Este |6.00 km/h | 50.00% | 0.00 hPa
  • 21-11-2017 21:00:00 | 5.60°C | Este |7.00 km/h | 49.00% | 0.00 hPa
  • 21-11-2017 20:00:00 | 3.30°C | Este |2.00 km/h | 63.00% | 0.00 hPa
  • 21-11-2017 19:00:00 | 3.80°C | Nordeste |4.00 km/h | 62.00% | 0.00 hPa
  • 21-11-2017 18:00:00 | 4.10°C | Este |3.00 km/h | 66.00% | 0.00 hPa
  • 21-11-2017 17:00:00 | 6.40°C | Este |3.00 km/h | 57.00% | 0.00 hPa
  • 21-11-2017 16:00:00 | 7.60°C | Este |3.00 km/h | 59.00% | 0.00 hPa
  • 21-11-2017 15:00:00 | 10.70°C | Calma |0.00 km/h | 54.00% | 0.00 hPa
  • 21-11-2017 14:00:00 | 12.20°C | Calma |0.00 km/h | 52.00% | 0.00 hPa
  • 21-11-2017 13:00:00 | 11.50°C | Calma |0.00 km/h | 57.00% | 0.00 hPa
  • 21-11-2017 12:00:00 | 6.50°C | Este |3.00 km/h | 69.00% | 0.00 hPa
  • 21-11-2017 11:00:00 | 3.20°C | Calma |0.00 km/h | 78.00% | 0.00 hPa
  • 21-11-2017 10:00:00 | 1.90°C | Este |2.00 km/h | 78.00% | 0.00 hPa